Time;durP1;ratioP1;P1;durP2;ratioP2;P2;SDS_P1;SDS_P2;PMS_P1;PMS_P2;Temp;Humidity;BMP_temperature;BMP_pressure;BME280_temperature;BME280_humidity;BME280_pressure;Samples;Min_cycle;Max_cycle;Signal;HPM_P1;HPM_P2
2022/05/05 00:00:08;;;;;;;;;;;;;;;22.79;41.35;99365.03;4471481;32;35064;-92
2022/05/05 00:02:35;;;;;;;;;;;;;;;22.79;41.28;99383.56;4480372;32;34316;-91
2022/05/05 00:05:03;;;;;;;;;;;;;;;22.76;41.46;99378.38;4479731;32;34320;-91
2022/05/05 00:07:31;;;;;;;;;;;;;;;22.71;41.60;99389.09;4470196;32;33689;-92
2022/05/05 00:09:58;;;;;;;;;;;;;;;22.97;40.90;99384.75;4474553;32;34993;-90
2022/05/05 00:15:13;;;;;;;;;;;;;;;23.14;40.59;99389.44;4476918;32;34487;-90
2022/05/05 00:17:41;;;;;;;;;;;;;;;23.09;40.67;99384.31;4472725;32;33684;-89
2022/05/05 00:20:08;;;;;;;;;;;;;;;23.04;40.55;99375.69;4479679;32;33718;-92
2022/05/05 00:22:39;;;;;;;;;;;;;;;23.07;40.13;99380.88;4467957;32;35324;-91
2022/05/05 00:25:06;;;;;;;;;;;;;;;22.95;40.41;99381.28;4474359;32;34349;-89
2022/05/05 00:27:33;;;;;;;;;;;;;;;22.92;40.46;99386.66;4479353;32;33691;-91
2022/05/05 00:30:01;;;;;;;;;;;;;;;22.63;41.25;99383.19;4478194;32;35155;-91
2022/05/05 00:32:28;;;;;;;;;;;;;;;22.85;40.83;99379.84;4474949;32;35338;-92
2022/05/05 00:34:55;;;;;;;;;;;;;;;22.79;40.92;99380.91;4480984;32;34598;-88
2022/05/05 00:37:23;;;;;;;;;;;;;;;22.94;40.75;99376.91;4470219;32;33791;-88
2022/05/05 00:39:53;;;;;;;;;;;;;;;22.95;40.78;99381.28;4470841;32;35162;-91
2022/05/05 00:42:21;;;;;;;;;;;;;;;23.04;40.49;99376.56;4466824;32;34881;-91
2022/05/05 00:44:48;;;;;;;;;;;;;;;22.90;40.66;99375.25;4470749;32;34601;-91
2022/05/05 00:47:16;;;;;;;;;;;;;;;23.01;40.40;99366.06;4478852;32;33383;-89
2022/05/05 00:49:49;;;;;;;;;;;;;;;22.97;40.47;99367.09;4458661;32;34253;-89
2022/05/05 00:52:17;;;;;;;;;;;;;;;23.05;40.29;99362.41;4472407;32;34468;-92
2022/05/05 00:54:44;;;;;;;;;;;;;;;23.05;40.23;99366.84;4480743;32;34199;-93
2022/05/05 00:57:12;;;;;;;;;;;;;;;23.01;40.32;99365.22;4478612;32;33616;-92
2022/05/05 00:59:39;;;;;;;;;;;;;;;22.99;40.38;99356.47;4464704;32;34668;-86
2022/05/05 01:02:06;;;;;;;;;;;;;;;22.91;40.46;99362.00;4471735;32;34358;-93
2022/05/05 01:04:34;;;;;;;;;;;;;;;22.93;40.36;99359.34;4466805;32;34501;-93
2022/05/05 01:07:01;;;;;;;;;;;;;;;22.83;40.55;99362.25;4463172;32;33196;-90
2022/05/05 01:09:29;;;;;;;;;;;;;;;22.75;40.87;99360.78;4477350;32;33749;-92
2022/05/05 01:11:56;;;;;;;;;;;;;;;22.81;40.79;99361.44;4473797;32;34229;-93
2022/05/05 01:14:23;;;;;;;;;;;;;;;22.85;40.66;99358.72;4472585;32;34640;-90
2022/05/05 01:16:50;;;;;;;;;;;;;;;22.56;41.14;99369.31;4473632;32;33541;-93
2022/05/05 01:19:18;;;;;;;;;;;;;;;22.73;40.72;99365.25;4466068;32;34069;-94
2022/05/05 01:21:55;;;;;;;;;;;;;;;22.83;40.31;99378.09;4484039;32;34484;-93
2022/05/05 01:28:10;;;;;;;;;;;;;;;22.67;40.61;99376.91;4483695;32;35210;-91
2022/05/05 01:29:55;;;;;;;;;;;;;;;22.80;40.20;99372.91;4483682;32;34745;-93
2022/05/05 01:32:29;;;;;;;;;;;;;;;22.86;40.11;99365.72;4483007;32;33969;-89
2022/05/05 01:34:56;;;;;;;;;;;;;;;22.90;39.98;99372.62;4482801;32;34603;-91
2022/05/05 01:37:24;;;;;;;;;;;;;;;22.71;40.18;99367.94;4483292;32;33515;-90
2022/05/05 01:39:51;;;;;;;;;;;;;;;22.72;40.15;99374.97;4483722;32;34161;-91
2022/05/05 01:42:19;;;;;;;;;;;;;;;22.72;40.16;99377.59;4477386;32;33795;-91
2022/05/05 01:44:47;;;;;;;;;;;;;;;22.66;40.25;99372.53;4469506;32;34498;-91
2022/05/05 01:47:14;;;;;;;;;;;;;;;22.65;40.22;99375.22;4468396;32;33445;-92
2022/05/05 01:49:43;;;;;;;;;;;;;;;22.47;40.48;99380.19;4468047;32;34407;-92
2022/05/05 01:52:11;;;;;;;;;;;;;;;22.29;40.97;99391.34;4454878;32;34189;-90
2022/05/05 01:54:38;;;;;;;;;;;;;;;22.36;40.87;99397.31;4475740;32;34352;-91
2022/05/05 01:57:06;;;;;;;;;;;;;;;22.14;41.04;99410.31;4483793;32;34484;-92
2022/05/05 01:59:34;;;;;;;;;;;;;;;22.34;40.57;99411.41;4472066;32;34995;-94
2022/05/05 02:02:02;;;;;;;;;;;;;;;22.03;41.23;99427.31;4479208;32;34128;-92
2022/05/05 02:04:29;;;;;;;;;;;;;;;20.54;44.98;99442.69;4482397;32;33795;-92
2022/05/05 02:06:57;;;;;;;;;;;;;;;19.48;48.00;99452.75;4483496;32;34197;-93
2022/05/05 02:09:24;;;;;;;;;;;;;;;19.32;48.67;99452.16;4473280;32;33700;-93
2022/05/05 02:11:53;;;;;;;;;;;;;;;19.03;49.38;99454.44;4468182;32;35353;-92
2022/05/05 02:14:23;;;;;;;;;;;;;;;19.49;48.33;99445.72;4469105;32;34412;-91
2022/05/05 02:16:51;;;;;;;;;;;;;;;20.91;44.92;99447.94;4483564;32;33235;-92
2022/05/05 02:19:19;;;;;;;;;;;;;;;21.31;44.01;99437.22;4483697;32;34557;-92
2022/05/05 02:21:46;;;;;;;;;;;;;;;21.57;43.43;99444.47;4480251;32;34306;-91
2022/05/05 02:24:14;;;;;;;;;;;;;;;21.84;42.85;99437.53;4474642;32;34037;-91
2022/05/05 02:26:41;;;;;;;;;;;;;;;22.01;42.14;99444.09;4483695;32;34366;-92
2022/05/05 02:29:08;;;;;;;;;;;;;;;22.14;41.53;99440.22;4475094;32;34326;-89
2022/05/05 02:31:36;;;;;;;;;;;;;;;21.72;42.11;99444.94;4467932;32;33999;-92
2022/05/05 02:34:08;;;;;;;;;;;;;;;21.72;42.17;99439.66;4468062;32;34311;-91
2022/05/05 02:39:22;;;;;;;;;;;;;;;21.94;41.76;99437.28;4481673;32;34259;-92
2022/05/05 02:41:50;;;;;;;;;;;;;;;22.15;41.47;99441.06;4455122;32;34341;-89
2022/05/05 02:44:17;;;;;;;;;;;;;;;22.16;41.37;99438.41;4467674;32;35061;-91
2022/05/05 02:46:44;;;;;;;;;;;;;;;22.10;41.23;99434.12;4477468;32;34108;-91
2022/05/05 02:49:13;;;;;;;;;;;;;;;21.96;41.49;99440.72;4482865;32;34299;-89
2022/05/05 02:51:40;;;;;;;;;;;;;;;21.96;41.24;99436.31;4483507;32;34396;-91
2022/05/05 02:56:53;;;;;;;;;;;;;;;22.06;40.78;99434.28;4482945;32;33013;-92
2022/05/05 02:59:20;;;;;;;;;;;;;;;22.09;40.65;99431.56;4478903;32;34946;-92
2022/05/05 03:01:48;;;;;;;;;;;;;;;21.99;40.91;99435.38;4475095;32;34337;-85
2022/05/05 03:04:15;;;;;;;;;;;;;;;21.96;40.83;99425.75;4481878;32;33652;-91
2022/05/05 03:06:42;;;;;;;;;;;;;;;22.00;40.60;99429.16;4471624;32;34055;-92
2022/05/05 03:09:09;;;;;;;;;;;;;;;21.99;40.55;99430.09;4465344;32;33943;-92
2022/05/05 03:11:37;;;;;;;;;;;;;;;21.91;40.49;99425.03;4468890;32;34210;-91
2022/05/05 03:14:04;;;;;;;;;;;;;;;21.78;40.86;99431.56;4481819;32;34340;-90
2022/05/05 03:16:31;;;;;;;;;;;;;;;21.86;40.79;99432.22;4476959;32;34467;-92
2022/05/05 03:18:59;;;;;;;;;;;;;;;21.85;41.01;99425.19;4468758;32;33911;-89
2022/05/05 03:21:26;;;;;;;;;;;;;;;21.91;40.93;99426.81;4478083;32;34512;-88
2022/05/05 03:23:53;;;;;;;;;;;;;;;21.86;41.01;99430.44;4483208;32;34162;-94
2022/05/05 03:26:21;;;;;;;;;;;;;;;21.85;41.28;99427.84;4460606;32;34302;-94
2022/05/05 03:28:48;;;;;;;;;;;;;;;21.96;40.96;99427.53;4477251;32;33890;-93
2022/05/05 03:31:15;;;;;;;;;;;;;;;21.93;41.01;99430.25;4481892;32;34194;-92
2022/05/05 03:33:43;;;;;;;;;;;;;;;22.09;40.61;99421.84;4476718;32;33850;-92
2022/05/05 03:36:10;;;;;;;;;;;;;;;21.70;41.72;99413.31;4473184;32;33433;-91
2022/05/05 03:38:37;;;;;;;;;;;;;;;21.67;41.90;99417.81;4471125;32;35246;-93
2022/05/05 03:41:05;;;;;;;;;;;;;;;21.51;42.52;99426.16;4476395;32;34323;-94
2022/05/05 03:43:33;;;;;;;;;;;;;;;21.41;43.06;99423.84;4481724;32;34568;-90
2022/05/05 03:46:06;;;;;;;;;;;;;;;21.30;43.35;99421.44;4476276;32;33157;-88
2022/05/05 03:48:33;;;;;;;;;;;;;;;21.66;42.88;99421.37;4462532;32;34381;-89
2022/05/05 03:51:01;;;;;;;;;;;;;;;21.69;42.72;99419.50;4482463;32;35131;-84
2022/05/05 03:53:29;;;;;;;;;;;;;;;21.73;42.45;99426.41;4480316;32;35270;-90
2022/05/05 03:55:56;;;;;;;;;;;;;;;21.52;43.12;99419.13;4478058;32;33321;-91
2022/05/05 03:58:23;;;;;;;;;;;;;;;21.59;43.07;99425.94;4479080;32;34276;-93
2022/05/05 04:00:51;;;;;;;;;;;;;;;21.95;42.81;99428.44;4477169;32;34125;-92
2022/05/05 04:03:30;;;;;;;;;;;;;;;21.74;42.76;99428.13;4477284;32;34680;-95
2022/05/05 04:06:03;;;;;;;;;;;;;;;22.04;42.43;99429.03;4475654;32;33311;-93
2022/05/05 04:08:32;;;;;;;;;;;;;;;22.11;42.14;99435.84;4482549;32;33972;-91
2022/05/05 04:10:59;;;;;;;;;;;;;;;21.64;42.21;99437.25;4467619;32;33959;-92
2022/05/05 04:13:26;;;;;;;;;;;;;;;21.52;43.06;99434.97;4481100;32;34257;-93
2022/05/05 04:15:54;;;;;;;;;;;;;;;21.07;43.22;99438.72;4474260;32;33496;-88
2022/05/05 04:18:21;;;;;;;;;;;;;;;21.43;43.66;99429.91;4471552;32;35067;-92
2022/05/05 04:20:48;;;;;;;;;;;;;;;21.72;42.47;99431.75;4480750;32;34285;-91
2022/05/05 04:23:16;;;;;;;;;;;;;;;21.36;42.71;99432.72;4482894;32;34961;-92
2022/05/05 04:26:03;;;;;;;;;;;;;;;21.16;43.78;99427.06;4480906;32;33311;-90
2022/05/05 04:28:31;;;;;;;;;;;;;;;21.45;44.20;99436.03;4482903;32;35113;-92
2022/05/05 04:30:59;;;;;;;;;;;;;;;21.53;44.40;99436.69;4463099;32;34463;-91
2022/05/05 04:33:26;;;;;;;;;;;;;;;21.52;44.03;99437.59;4481075;32;35291;-91
2022/05/05 04:35:55;;;;;;;;;;;;;;;21.68;43.95;99451.22;4482139;32;33738;-91
2022/05/05 04:38:22;;;;;;;;;;;;;;;21.81;43.06;99445.53;4478293;32;33684;-87
2022/05/05 04:40:49;;;;;;;;;;;;;;;21.07;44.39;99448.41;4482035;32;33643;-86
2022/05/05 04:43:17;;;;;;;;;;;;;;;21.57;42.96;99448.88;4476312;32;35335;-91
2022/05/05 04:45:44;;;;;;;;;;;;;;;22.32;42.12;99444.94;4482660;32;34499;-89
2022/05/05 04:48:12;;;;;;;;;;;;;;;22.59;42.30;99443.22;4475389;32;34914;-91
2022/05/05 04:50:40;;;;;;;;;;;;;;;22.31;43.78;99448.50;4463326;32;33832;-83
2022/05/05 04:53:07;;;;;;;;;;;;;;;22.20;44.19;99453.25;4484133;32;35252;-85
2022/05/05 04:55:34;;;;;;;;;;;;;;;22.36;44.03;99451.00;4479768;32;33757;-87
2022/05/05 04:58:02;;;;;;;;;;;;;;;22.43;43.63;99438.47;4471129;32;34107;-89
2022/05/05 05:00:29;;;;;;;;;;;;;;;21.55;42.49;99450.69;4481173;32;34201;-86
2022/05/05 05:02:57;;;;;;;;;;;;;;;21.01;43.93;99453.84;4481873;32;34155;-84
2022/05/05 05:05:25;;;;;;;;;;;;;;;20.52;45.24;99452.37;4483499;32;33460;-84
2022/05/05 05:07:52;;;;;;;;;;;;;;;21.23;44.12;99444.47;4483352;32;34055;-94
2022/05/05 05:10:19;;;;;;;;;;;;;;;21.35;43.31;99438.91;4483379;32;34209;-92
2022/05/05 05:12:47;;;;;;;;;;;;;;;20.67;44.79;99453.78;4483964;32;35284;-93
2022/05/05 05:15:14;;;;;;;;;;;;;;;20.39;45.64;99452.63;4484336;32;34463;-87
2022/05/05 05:17:42;;;;;;;;;;;;;;;20.69;45.63;99449.38;4484022;32;34333;-91
2022/05/05 05:20:10;;;;;;;;;;;;;;;21.23;44.66;99449.75;4483678;32;34382;-87
2022/05/05 05:22:37;;;;;;;;;;;;;;;21.13;45.42;99451.75;4482909;32;34354;-89
2022/05/05 05:25:04;;;;;;;;;;;;;;;20.78;45.36;99451.75;4489211;31;33560;-89
2022/05/05 05:27:32;;;;;;;;;;;;;;;21.04;45.17;99457.25;4485884;31;34736;-90
2022/05/05 05:29:59;;;;;;;;;;;;;;;21.08;45.04;99450.13;4483414;32;34091;-90
2022/05/05 05:32:26;;;;;;;;;;;;;;;20.70;45.67;99456.34;4483833;32;33847;-90
2022/05/05 05:34:54;;;;;;;;;;;;;;;20.65;46.09;99457.34;4484228;32;33122;-89
2022/05/05 05:37:22;;;;;;;;;;;;;;;20.31;47.15;99467.75;4483673;32;34236;-91
2022/05/05 05:39:49;;;;;;;;;;;;;;;20.24;47.17;99465.28;4483951;32;34266;-92
2022/05/05 05:42:16;;;;;;;;;;;;;;;20.64;46.19;99465.25;4484212;32;34247;-87
2022/05/05 05:44:44;;;;;;;;;;;;;;;19.85;47.89;99452.03;4484211;32;34168;-86
2022/05/05 05:47:12;;;;;;;;;;;;;;;20.13;47.48;99469.00;4483667;32;33880;-91
2022/05/05 05:49:40;;;;;;;;;;;;;;;19.66;48.20;99470.84;4484149;32;34798;-85
2022/05/05 05:52:07;;;;;;;;;;;;;;;20.26;47.58;99469.59;4484038;32;33924;-84
2022/05/05 05:54:34;;;;;;;;;;;;;;;19.92;48.31;99470.28;4484126;32;33388;-83
2022/05/05 05:57:02;;;;;;;;;;;;;;;20.25;46.97;99473.13;4484033;32;34868;-88
2022/05/05 05:59:29;;;;;;;;;;;;;;;21.17;45.09;99470.13;4484035;32;35274;-88
2022/05/05 06:04:42;;;;;;;;;;;;;;;19.51;48.93;99483.34;4484219;32;33875;-87
2022/05/05 06:07:11;;;;;;;;;;;;;;;19.63;48.04;99476.16;4469466;32;34888;-85
2022/05/05 06:09:38;;;;;;;;;;;;;;;20.25;46.81;99473.13;4484056;32;33882;-91
2022/05/05 06:12:06;;;;;;;;;;;;;;;19.77;48.39;99483.75;4483836;32;35364;-92
2022/05/05 06:14:33;;;;;;;;;;;;;;;19.86;47.64;99473.06;4484046;32;34444;-91
2022/05/05 06:17:00;;;;;;;;;;;;;;;19.46;48.29;99478.19;4483980;32;34352;-92
2022/05/05 06:19:28;;;;;;;;;;;;;;;20.12;47.26;99483.06;4483817;32;35309;-89
2022/05/05 06:21:57;;;;;;;;;;;;;;;20.56;46.66;99477.75;4483610;32;34188;-91
2022/05/05 06:24:24;;;;;;;;;;;;;;;20.62;46.74;99482.87;4483975;32;34316;-90
2022/05/05 06:26:51;;;;;;;;;;;;;;;20.49;46.09;99490.19;4483658;32;33972;-93
2022/05/05 06:29:18;;;;;;;;;;;;;;;20.48;46.69;99479.66;4483714;32;33818;-92
2022/05/05 06:31:46;;;;;;;;;;;;;;;21.23;45.58;99485.78;4483806;32;34134;-91
2022/05/05 06:34:13;;;;;;;;;;;;;;;20.70;45.93;99491.47;4483819;32;33522;-90
2022/05/05 06:36:41;;;;;;;;;;;;;;;21.61;44.64;99482.19;4483673;32;34240;-93
2022/05/05 06:39:08;;;;;;;;;;;;;;;20.76;46.40;99491.34;4483744;32;35211;-92
2022/05/05 06:41:35;;;;;;;;;;;;;;;21.25;45.12;99497.16;4483923;32;34424;-89
2022/05/05 06:44:02;;;;;;;;;;;;;;;21.30;44.88;99496.16;4483677;32;34364;-92
2022/05/05 06:46:30;;;;;;;;;;;;;;;21.94;44.52;99490.09;4483875;32;34017;-91
2022/05/05 06:48:57;;;;;;;;;;;;;;;22.05;42.64;99490.63;4483702;32;34263;-91
2022/05/05 06:51:24;;;;;;;;;;;;;;;21.34;43.73;99491.69;4483705;32;35292;-90
2022/05/05 06:53:52;;;;;;;;;;;;;;;21.86;43.43;99499.06;4483575;32;34362;-92
2022/05/05 06:56:20;;;;;;;;;;;;;;;21.58;43.52;99498.09;4483635;32;34160;-91
2022/05/05 06:58:47;;;;;;;;;;;;;;;21.54;43.86;99496.44;4483430;32;34263;-91
2022/05/05 07:06:46;;;;;;;;;;;;;;;23.09;40.71;99494.53;4470853;32;34341;-88
2022/05/05 07:11:59;;;;;;;;;;;;;;;22.62;42.37;99497.75;4483472;32;34264;-90
2022/05/05 07:14:27;;;;;;;;;;;;;;;22.93;42.09;99500.31;4483371;32;34394;-88
2022/05/05 07:16:54;;;;;;;;;;;;;;;23.18;40.58;99495.06;4482951;32;34430;-88
2022/05/05 07:19:28;;;;;;;;;;;;;;;23.34;41.11;99499.88;4482991;32;34942;-89
2022/05/05 07:21:55;;;;;;;;;;;;;;;24.21;39.48;99500.28;4482713;32;34144;-90
2022/05/05 07:24:22;;;;;;;;;;;;;;;24.51;39.96;99500.94;4483240;32;33405;-88
2022/05/05 07:26:49;;;;;;;;;;;;;;;25.07;38.91;99504.84;4483453;32;34813;-88
2022/05/05 07:29:17;;;;;;;;;;;;;;;23.02;40.75;99509.72;4483431;32;34460;-89
2022/05/05 07:31:45;;;;;;;;;;;;;;;23.30;41.45;99510.56;4481623;32;33779;-87
2022/05/05 07:34:14;;;;;;;;;;;;;;;22.41;40.90;99511.63;4454070;32;33425;-89
2022/05/05 07:36:41;;;;;;;;;;;;;;;21.88;42.68;99514.84;4466790;32;34745;-86
2022/05/05 07:39:09;;;;;;;;;;;;;;;21.79;42.07;99509.84;4486588;31;35065;-84
2022/05/05 07:41:36;;;;;;;;;;;;;;;22.02;42.30;99515.34;4499014;31;34607;-82
2022/05/05 07:44:05;;;;;;;;;;;;;;;22.13;41.89;99506.25;4480361;31;33728;-86
2022/05/05 07:46:33;;;;;;;;;;;;;;;22.78;42.13;99522.78;4467734;32;33754;-89
2022/05/05 07:49:04;;;;;;;;;;;;;;;24.03;39.03;99506.25;4468301;32;34352;-86
2022/05/05 07:51:31;;;;;;;;;;;;;;;23.72;38.07;99520.59;4469007;32;34449;-82
2022/05/05 07:56:45;;;;;;;;;;;;;;;23.40;39.27;99515.53;4479834;32;33917;-86
2022/05/05 07:59:12;;;;;;;;;;;;;;;22.69;41.04;99523.09;4483132;32;34779;-84
2022/05/05 08:01:39;;;;;;;;;;;;;;;23.12;41.37;99524.38;4468596;32;35102;-85
2022/05/05 08:04:07;;;;;;;;;;;;;;;23.10;39.28;99527.97;4483006;32;33435;-83
2022/05/05 08:06:34;;;;;;;;;;;;;;;22.31;40.40;99525.09;4468822;32;34580;-85
2022/05/05 08:09:01;;;;;;;;;;;;;;;22.97;40.13;99524.88;4471450;32;33998;-82
2022/05/05 08:11:29;;;;;;;;;;;;;;;23.03;39.62;99527.31;4467346;32;35219;-83
2022/05/05 08:13:56;;;;;;;;;;;;;;;22.14;40.36;99530.00;4467275;32;33756;-81
2022/05/05 08:16:24;;;;;;;;;;;;;;;23.42;38.65;99535.72;4467246;32;34273;-83
2022/05/05 08:18:51;;;;;;;;;;;;;;;23.36;38.32;99535.06;4466673;32;34282;-84
2022/05/05 08:21:18;;;;;;;;;;;;;;;22.92;38.00;99542.66;4471756;32;36870;-81
2022/05/05 08:23:46;;;;;;;;;;;;;;;23.04;39.18;99532.56;4483153;32;33570;-82
2022/05/05 08:28:59;;;;;;;;;;;;;;;22.91;38.69;99535.63;4467035;32;34034;-86
2022/05/05 08:31:27;;;;;;;;;;;;;;;;;;4474985;32;34349;-83
2022/05/05 08:33:54;;;;;;;;;;;;;;;24.24;35.86;99531.97;4467493;32;33654;-84
2022/05/05 08:36:21;;;;;;;;;;;;;;;23.82;36.24;99520.25;4482678;32;33845;-86
2022/05/05 08:38:49;;;;;;;;;;;;;;;23.92;37.47;99532.25;4482378;32;33947;-86
2022/05/05 08:41:17;;;;;;;;;;;;;;;24.14;36.44;99527.91;4482490;32;34541;-86
2022/05/05 08:43:44;;;;;;;;;;;;;;;24.57;35.89;99533.41;4482557;32;33615;-87
2022/05/05 08:46:28;;;;;;;;;;;;;;;24.03;36.22;99538.91;4482428;32;35045;-84
2022/05/05 08:48:57;;;;;;;;;;;;;;;24.43;35.18;99529.47;4466901;32;34009;-85
2022/05/05 08:51:25;;;;;;;;;;;;;;;24.13;36.07;99544.75;4477393;32;34679;-86
2022/05/05 08:53:53;;;;;;;;;;;;;;;24.06;35.76;99542.38;4468647;32;33572;-85
2022/05/05 08:56:20;;;;;;;;;;;;;;;24.59;35.84;99544.84;4482446;32;35206;-85
2022/05/05 08:58:48;;;;;;;;;;;;;;;24.80;35.20;99540.47;4482264;32;34461;-84
2022/05/05 09:01:15;;;;;;;;;;;;;;;24.76;34.83;99540.56;4482271;32;34525;-84
2022/05/05 09:03:43;;;;;;;;;;;;;;;24.97;35.00;99533.56;4482324;32;33572;-81
2022/05/05 09:06:11;;;;;;;;;;;;;;;24.62;36.29;99542.91;4482210;32;35080;-86
2022/05/05 09:08:39;;;;;;;;;;;;;;;23.93;36.76;99548.09;4482186;32;35071;-84
2022/05/05 09:11:06;;;;;;;;;;;;;;;25.38;35.22;99543.41;4482363;32;34563;-83
2022/05/05 09:13:34;;;;;;;;;;;;;;;24.27;36.08;99547.72;4481916;32;34271;-85
2022/05/05 09:16:03;;;;;;;;;;;;;;;25.28;35.75;99561.53;4481864;32;34060;-83
2022/05/05 09:18:32;;;;;;;;;;;;;;;24.96;35.71;99562.78;4468030;32;35135;-85
2022/05/05 09:21:03;;;;;;;;;;;;;;;24.79;34.80;99560.81;4467550;32;34250;-87
2022/05/05 09:23:36;;;;;;;;;;;;;;;24.13;35.49;99555.34;4467883;32;33724;-84
2022/05/05 09:26:04;;;;;;;;;;;;;;;24.58;35.96;99551.87;4467613;32;34236;-84
2022/05/05 09:28:32;;;;;;;;;;;;;;;25.12;34.85;99558.66;4481618;32;34492;-84
2022/05/05 09:31:04;;;;;;;;;;;;;;;25.39;33.73;99556.66;4482459;32;34539;-89
2022/05/05 09:33:38;;;;;;;;;;;;;;;24.82;35.39;99573.09;4484085;32;33465;-88
2022/05/05 09:36:06;;;;;;;;;;;;;;;25.07;34.76;99559.72;4484581;32;33575;-88
2022/05/05 09:38:53;;;;;;;;;;;;;;;24.95;34.22;99558.41;4484217;32;34601;-86
2022/05/05 09:41:22;;;;;;;;;;;;;;;23.72;34.71;99567.41;4484422;32;34229;-86
2022/05/05 09:43:49;;;;;;;;;;;;;;;25.13;33.40;99554.19;4469758;32;34558;-83
2022/05/05 09:46:22;;;;;;;;;;;;;;;25.72;33.70;99537.53;4483973;32;34278;-89
2022/05/05 09:48:50;;;;;;;;;;;;;;;26.57;31.90;99543.50;4483977;32;34478;-81
2022/05/05 09:51:17;;;;;;;;;;;;;;;25.24;32.47;99554.62;4483868;32;34320;-83
2022/05/05 09:59:29;;;;;;;;;;;;;;;26.26;30.04;99544.03;4483682;32;34443;-83
2022/05/05 10:02:04;;;;;;;;;;;;;;;26.69;31.41;99550.03;4483851;32;35300;-85
2022/05/05 10:04:32;;;;;;;;;;;;;;;26.03;31.51;99546.88;4470287;32;34454;-85
2022/05/05 10:07:00;;;;;;;;;;;;;;;27.12;31.20;99546.22;4469644;32;34890;-82
2022/05/05 10:09:27;;;;;;;;;;;;;;;25.88;31.81;99551.06;4469766;32;34272;-84
2022/05/05 10:11:55;;;;;;;;;;;;;;;26.29;30.52;99543.91;4483830;32;34546;-82
2022/05/05 10:14:25;;;;;;;;;;;;;;;26.50;29.62;99538.53;4481897;32;34537;-82
2022/05/05 10:16:53;;;;;;;;;;;;;;;26.69;29.18;99537.59;4468700;32;34020;-84
2022/05/05 10:19:21;;;;;;;;;;;;;;;27.40;29.29;99534.19;4483119;32;34401;-84
2022/05/05 10:21:52;;;;;;;;;;;;;;;27.31;28.66;99540.81;4483589;32;34346;-83
2022/05/05 10:24:21;;;;;;;;;;;;;;;26.78;30.74;99546.94;4469367;32;33440;-83
2022/05/05 10:26:53;;;;;;;;;;;;;;;26.35;30.60;99537.44;4467066;32;34293;-87
2022/05/05 10:29:32;;;;;;;;;;;;;;;26.23;30.14;99545.97;4453871;32;33698;-85
2022/05/05 10:32:10;;;;;;;;;;;;;;;25.86;30.60;99531.66;4470904;32;34342;-87
2022/05/05 10:34:41;;;;;;;;;;;;;;;27.27;29.61;99535.72;4469607;32;33405;-86
2022/05/05 10:37:11;;;;;;;;;;;;;;;28.33;27.43;99531.09;4469853;32;35164;-83
2022/05/05 10:39:51;;;;;;;;;;;;;;;28.41;28.83;99533.38;4483706;32;34276;-81
2022/05/05 10:42:40;;;;;;;;;;;;;;;27.16;27.84;99537.16;4482382;32;34324;-86
2022/05/05 10:45:10;;;;;;;;;;;;;;;27.09;27.86;99534.81;4483631;32;33243;-87
2022/05/05 10:47:49;;;;;;;;;;;;;;;27.11;29.58;99536.50;4469904;32;34151;-86
2022/05/05 10:50:39;;;;;;;;;;;;;;;27.41;28.52;99530.56;4483650;32;35270;-87
2022/05/05 10:53:07;;;;;;;;;;;;;;;26.12;30.89;99539.34;4483849;32;34094;-84
2022/05/05 10:55:48;;;;;;;;;;;;;;;26.85;29.29;99537.72;4483394;32;34142;-84
2022/05/05 10:58:44;;;;;;;;;;;;;;;27.75;29.15;99531.53;4483488;32;34226;-86
2022/05/05 11:01:11;;;;;;;;;;;;;;;28.27;28.04;99524.31;4483654;32;34586;-83
2022/05/05 11:03:39;;;;;;;;;;;;;;;26.48;29.70;99543.06;4483997;32;35117;-85
2022/05/05 11:06:15;;;;;;;;;;;;;;;26.32;30.25;99526.94;4469296;32;33364;-87
2022/05/05 11:08:52;;;;;;;;;;;;;;;25.53;31.34;99548.06;4482993;32;34294;-85
2022/05/05 11:21:32;;;;;;;;;;;;;;;26.98;29.59;99522.03;4483354;32;34154;-86
2022/05/05 11:22:44;;;;;;;;;;;;;;;27.55;30.10;99533.41;4451908;32;35334;-84
2022/05/05 11:25:12;;;;;;;;;;;;;;;28.34;27.96;99511.50;4451598;32;34327;-83
2022/05/05 11:27:39;;;;;;;;;;;;;;;27.63;28.96;99519.69;4451599;32;33329;-84
2022/05/05 11:30:07;;;;;;;;;;;;;;;26.79;30.29;99522.06;4451233;32;34213;-84
2022/05/05 11:32:35;;;;;;;;;;;;;;;27.41;28.99;99509.28;4450189;32;35209;-83
2022/05/05 11:35:02;;;;;;;;;;;;;;;27.05;28.94;99515.50;4452243;32;34722;-80
2022/05/05 11:37:29;;;;;;;;;;;;;;;26.84;29.35;99527.16;4452055;32;33245;-84
2022/05/05 11:39:59;;;;;;;;;;;;;;;26.07;30.24;99520.09;4450374;32;34794;-82
2022/05/05 11:42:27;;;;;;;;;;;;;;;26.97;30.12;99512.31;4450633;32;35214;-84
2022/05/05 11:44:54;;;;;;;;;;;;;;;27.15;29.83;99506.13;4452217;32;34315;-82
2022/05/05 11:47:22;;;;;;;;;;;;;;;26.15;30.09;99504.66;4451964;32;34030;-83
2022/05/05 11:49:51;;;;;;;;;;;;;;;27.00;30.10;99498.87;4450900;32;34263;-81
2022/05/05 11:52:19;;;;;;;;;;;;;;;26.72;29.87;99502.03;4452039;32;34501;-81
2022/05/05 11:54:48;;;;;;;;;;;;;;;26.49;29.55;99503.13;4451609;32;34982;-84
2022/05/05 11:57:32;;;;;;;;;;;;;;;27.59;30.45;99497.69;4450742;32;33935;-84
2022/05/05 12:02:46;;;;;;;;;;;;;;;29.27;27.10;99492.03;4451930;32;35881;-83
2022/05/05 12:05:15;;;;;;;;;;;;;;;29.23;26.47;99490.50;4450478;32;34460;-81
2022/05/05 12:07:44;;;;;;;;;;;;;;;27.84;26.81;99478.66;4425200;32;793493;-84
2022/05/05 12:10:14;;;;;;;;;;;;;;;28.13;26.12;99481.53;4451391;32;34338;-81
2022/05/05 12:12:45;;;;;;;;;;;;;;;26.28;27.83;99490.78;4451637;32;34550;-83
2022/05/05 12:15:13;;;;;;;;;;;;;;;27.24;28.57;99491.50;4451714;32;34677;-81
2022/05/05 12:17:45;;;;;;;;;;;;;;;28.18;25.49;99467.94;4451472;32;33560;-83
2022/05/05 12:20:17;;;;;;;;;;;;;;;27.93;26.36;99471.09;4452378;32;34303;-84
2022/05/05 12:22:44;;;;;;;;;;;;;;;28.98;26.66;99470.59;4481946;32;35129;-85
2022/05/05 12:25:14;;;;;;;;;;;;;;;28.01;27.10;99482.22;4466519;32;34206;-83
2022/05/05 12:27:43;;;;;;;;;;;;;;;28.83;27.10;99476.78;4480412;32;34081;-83
2022/05/05 12:30:14;;;;;;;;;;;;;;;28.42;25.54;99471.12;4481260;32;35110;-80
2022/05/05 12:32:49;;;;;;;;;;;;;;;28.91;26.38;99476.34;4482275;32;34206;-81
2022/05/05 12:35:27;;;;;;;;;;;;;;;27.79;27.27;99477.16;4482146;32;34171;-84
2022/05/05 12:38:05;;;;;;;;;;;;;;;27.58;27.72;99474.66;4483251;31;34719;-82
2022/05/05 12:40:33;;;;;;;;;;;;;;;27.67;27.77;99477.78;4486316;31;33821;-82
2022/05/05 12:43:01;;;;;;;;;;;;;;;28.19;27.83;99478.56;4465462;32;34268;-82
2022/05/05 12:45:30;;;;;;;;;;;;;;;28.47;26.96;99479.72;4466652;32;34412;-82
2022/05/05 12:47:58;;;;;;;;;;;;;;;28.30;26.32;99465.50;4466777;32;33522;-82
2022/05/05 12:50:41;;;;;;;;;;;;;;;28.73;26.07;99470.25;4466395;32;33975;-81
2022/05/05 13:01:36;;;;;;;;;;;;;;;28.95;25.27;99468.06;4481973;32;33915;-84
2022/05/05 13:04:09;;;;;;;;;;;;;;;29.78;25.07;99460.50;4457048;32;35176;-82
2022/05/05 13:06:37;;;;;;;;;;;;;;;29.42;24.99;99459.06;4480967;32;35165;-83
2022/05/05 13:09:05;;;;;;;;;;;;;;;29.27;24.86;99449.31;4483926;32;34041;-82
2022/05/05 13:11:33;;;;;;;;;;;;;;;29.41;23.22;99443.16;4469768;32;35138;-83
2022/05/05 13:14:02;;;;;;;;;;;;;;;29.57;23.67;99454.59;4483242;32;34092;-83
2022/05/05 13:16:30;;;;;;;;;;;;;;;29.13;24.75;99446.59;4467448;32;35036;-83
2022/05/05 13:18:58;;;;;;;;;;;;;;;28.29;24.75;99461.06;4474457;32;33334;-85
2022/05/05 13:21:27;;;;;;;;;;;;;;;27.98;25.64;99453.91;4472629;32;34437;-83
2022/05/05 13:23:56;;;;;;;;;;;;;;;28.89;25.58;99457.72;4478290;32;34012;-84
2022/05/05 13:26:24;;;;;;;;;;;;;;;28.76;25.03;99459.41;4468525;32;35016;-84
2022/05/05 13:28:52;;;;;;;;;;;;;;;28.71;23.99;99456.12;4472054;32;33509;-85
2022/05/05 13:31:20;;;;;;;;;;;;;;;28.84;26.34;99452.66;4484303;32;34101;-85
2022/05/05 13:33:47;;;;;;;;;;;;;;;28.55;24.54;99451.66;4483426;32;35344;-85
2022/05/05 13:36:15;;;;;;;;;;;;;;;28.84;24.51;99447.31;4483988;32;34152;-85
2022/05/05 13:38:42;;;;;;;;;;;;;;;29.48;24.52;99447.16;4483960;32;33743;-82
2022/05/05 13:41:30;;;;;;;;;;;;;;;29.33;24.07;99432.94;4489607;31;35213;-83
2022/05/05 13:43:57;;;;;;;;;;;;;;;29.32;24.47;99420.50;4479824;31;34398;-84
2022/05/05 13:46:24;;;;;;;;;;;;;;;29.40;25.79;99426.28;4483398;32;35309;-84
2022/05/05 13:48:53;;;;;;;;;;;;;;;29.23;25.54;99429.09;4484237;32;33305;-85